Time;durP1;ratioP1;P1;durP2;ratioP2;P2;SDS_P1;SDS_P2;PMS_P1;PMS_P2;Temp;Humidity;BMP_temperature;BMP_pressure;BME280_temperature;BME280_humidity;BME280_pressure;Samples;Min_cycle;Max_cycle;Signal;HPM_P1;HPM_P2
2022/03/05 00:00:20;;;;;;;5.78;5.00;;;;;;;18.15;46.00;101373.38;5055254;28;20047;-38
2022/03/05 00:02:47;;;;;;;5.90;5.20;;;;;;;18.17;45.44;101385.69;5037337;28;20111;-37
2022/03/05 00:05:13;;;;;;;6.10;4.50;;;;;;;18.19;45.47;101385.47;5055295;28;20040;-37
2022/03/05 00:07:39;;;;;;;5.72;5.10;;;;;;;18.22;45.62;101385.03;5055316;28;20036;-39
2022/03/05 00:10:06;;;;;;;5.05;4.65;;;;;;;18.22;45.59;101384.19;5054908;28;20103;-39
2022/03/05 00:12:33;;;;;;;5.80;5.15;;;;;;;18.22;45.45;101386.91;5055201;28;20029;-38
2022/03/05 00:14:59;;;;;;;5.82;5.28;;;;;;;18.17;45.05;101385.69;5036953;28;20021;-35
2022/03/05 00:17:25;;;;;;;5.85;5.35;;;;;;;18.21;45.48;101390.69;5054488;28;20079;-37
2022/03/05 00:19:51;;;;;;;5.55;5.05;;;;;;;18.24;45.79;101393.81;5054058;28;20043;-36
2022/03/05 00:22:16;;;;;;;6.32;4.72;;;;;;;18.27;45.44;101392.53;5054109;28;20404;-38
2022/03/05 00:24:42;;;;;;;5.53;4.90;;;;;;;18.27;45.30;101390.63;5054235;28;20037;-37
2022/03/05 00:27:08;;;;;;;5.78;4.90;;;;;;;18.24;45.40;101384.78;5054604;28;20040;-37
2022/03/05 00:29:35;;;;;;;4.78;4.38;;;;;;;18.28;45.28;101386.03;5037152;28;20139;-39
2022/03/05 00:32:01;;;;;;;5.90;4.97;;;;;;;18.29;45.50;101385.78;5037243;28;20049;-37
2022/03/05 00:34:28;;;;;;;5.57;5.07;;;;;;;18.26;45.26;101378.09;5037845;28;20036;-37
2022/03/05 00:36:54;;;;;;;5.40;4.95;;;;;;;18.19;45.27;101369.16;5054184;28;20032;-37
2022/03/05 00:39:21;;;;;;;6.50;5.18;;;;;;;18.23;45.37;101381.25;5054517;28;20028;-37
2022/03/05 00:41:47;;;;;;;4.85;4.35;;;;;;;18.26;45.42;101383.53;5053747;28;20416;-37
2022/03/05 00:44:13;;;;;;;4.60;4.30;;;;;;;18.27;45.18;101385.19;5036800;28;20029;-37
2022/03/05 00:46:40;;;;;;;5.40;4.90;;;;;;;18.26;45.18;101388.16;5054050;28;20033;-37
2022/03/05 00:49:06;;;;;;;5.25;4.75;;;;;;;18.27;45.51;101381.63;5036475;28;20032;-36
2022/03/05 00:51:32;;;;;;;5.13;4.72;;;;;;;18.24;45.21;101384.78;5053933;28;20051;-37
2022/03/05 00:53:58;;;;;;;5.65;5.15;;;;;;;18.13;45.21;101370.06;5036158;28;20104;-37
2022/03/05 00:56:24;;;;;;;5.30;4.90;;;;;;;18.26;45.18;101393.59;5054065;28;20021;-36
2022/03/05 00:58:50;;;;;;;5.50;4.93;;;;;;;18.26;45.24;101396.31;5053929;28;20112;-37
2022/03/05 01:01:16;;;;;;;6.18;5.53;;;;;;;18.28;45.16;101394.19;5053711;28;20037;-37
2022/03/05 01:03:43;;;;;;;5.25;4.75;;;;;;;18.26;44.95;101393.59;5053833;28;20098;-37
2022/03/05 01:06:09;;;;;;;5.35;4.95;;;;;;;18.24;45.15;101380.22;5054648;28;20068;-36
2022/03/05 01:08:34;;;;;;;5.68;5.20;;;;;;;18.27;45.23;101378.91;5055292;28;20025;-37
2022/03/05 01:11:02;;;;;;;5.13;4.72;;;;;;;18.27;45.00;101387.91;5021843;28;20025;-37
2022/03/05 01:13:30;;;;;;;5.65;5.25;;;;;;;18.25;44.90;101389.19;5038631;28;20376;-39
2022/03/05 01:15:56;;;;;;;5.82;5.30;;;;;;;18.25;44.90;101392.72;5056005;28;20074;-37
2022/03/05 01:18:22;;;;;;;5.03;4.53;;;;;;;18.21;45.03;101379.81;5055855;28;20138;-37
2022/03/05 01:20:48;;;;;;;5.30;4.90;;;;;;;18.23;45.01;101386.69;5056225;28;20040;-38
2022/03/05 01:23:14;;;;;;;5.50;5.00;;;;;;;18.27;44.77;101392.53;5056051;28;20408;-39
2022/03/05 01:25:39;;;;;;;5.43;5.03;;;;;;;18.27;44.96;101396.06;5020783;28;20024;-40
2022/03/05 01:28:05;;;;;;;5.22;4.82;;;;;;;18.29;44.95;101393.13;5037385;28;20058;-37
2022/03/05 01:30:31;;;;;;;6.30;5.70;;;;;;;18.28;44.89;101391.47;5066817;28;20098;-37
2022/03/05 01:32:57;;;;;;;5.28;4.78;;;;;;;18.26;45.25;101386.25;5071422;28;20029;-37
2022/03/05 01:35:22;;;;;;;5.10;4.70;;;;;;;18.33;44.98;101391.63;5066184;28;20461;-37
2022/03/05 01:37:48;;;;;;;5.40;4.90;;;;;;;18.31;44.97;101381.00;5060027;28;20086;-37
2022/03/05 01:40:14;;;;;;;5.45;4.95;;;;;;;18.30;44.85;101381.22;5061765;28;20029;-38
2022/03/05 01:42:40;;;;;;;5.95;5.45;;;;;;;18.25;44.91;101372.88;5068692;28;20036;-37
2022/03/05 01:45:06;;;;;;;5.28;4.80;;;;;;;18.34;44.82;101399.56;5050632;28;20041;-38
2022/03/05 01:47:32;;;;;;;5.57;5.07;;;;;;;18.36;44.66;101389.28;5067402;28;20055;-37
2022/03/05 01:49:58;;;;;;;5.13;4.72;;;;;;;18.36;44.70;101389.28;5059574;28;20033;-38
2022/03/05 01:52:24;;;;;;;5.95;5.45;;;;;;;18.31;44.72;101370.13;5062416;28;20029;-37
2022/03/05 01:54:49;;;;;;;5.90;5.40;;;;;;;18.36;44.87;101377.59;5060971;28;20369;-37
2022/03/05 01:57:15;;;;;;;7.63;5.40;;;;;;;18.38;44.52;101384.47;5056943;28;20067;-37
2022/03/05 01:59:41;;;;;;;5.50;5.00;;;;;;;18.38;44.80;101379.00;5056957;28;20035;-37
2022/03/05 02:02:07;;;;;;;5.30;4.90;;;;;;;18.38;44.76;101379.00;5056919;28;20103;-37
2022/03/05 02:04:33;;;;;;;5.78;5.20;;;;;;;18.39;44.59;101385.31;5056774;28;20124;-38
2022/03/05 02:06:59;;;;;;;6.07;5.10;;;;;;;18.42;44.96;101381.31;5038736;28;20500;-38
2022/03/05 02:09:25;;;;;;;5.43;5.03;;;;;;;18.43;44.60;101388.41;5056859;28;20033;-37
2022/03/05 02:11:51;;;;;;;5.53;5.13;;;;;;;18.46;45.01;101385.22;5056554;28;20040;-37
2022/03/05 02:14:18;;;;;;;5.82;5.07;;;;;;;18.46;44.90;101377.06;5057583;28;20112;-37
2022/03/05 02:16:45;;;;;;;5.78;5.28;;;;;;;18.43;44.62;101372.91;5061945;28;20480;-37
2022/03/05 02:19:11;;;;;;;5.43;5.00;;;;;;;18.47;44.77;101384.19;5063053;28;20159;-37
2022/03/05 02:21:37;;;;;;;5.43;5.03;;;;;;;18.46;44.79;101382.50;5038986;28;20115;-38
2022/03/05 02:24:04;;;;;;;5.00;4.60;;;;;;;18.48;44.40;101392.13;5056967;28;20033;-38
2022/03/05 02:26:30;;;;;;;5.18;4.78;;;;;;;18.50;44.84;101389.19;5021976;28;20033;-37
2022/03/05 02:28:56;;;;;;;5.55;5.15;;;;;;;18.50;44.58;101391.91;5056002;28;20079;-38
2022/03/05 02:31:23;;;;;;;5.18;4.78;;;;;;;18.50;44.81;101389.19;5056137;28;20033;-39
2022/03/05 02:33:52;;;;;;;5.72;5.10;;;;;;;18.56;44.74;101393.72;5056549;28;20029;-38
2022/03/05 02:36:20;;;;;;;5.15;4.75;;;;;;;18.54;44.43;101390.41;5056280;28;20504;-38
2022/03/05 02:38:46;;;;;;;5.75;5.25;;;;;;;18.51;44.68;101379.97;5056629;28;20064;-37
2022/03/05 02:41:12;;;;;;;5.47;5.07;;;;;;;18.65;44.52;101397.00;5038378;28;20027;-38
2022/03/05 02:43:37;;;;;;;5.28;4.88;;;;;;;18.65;44.43;101397.00;5056002;28;20111;-37
2022/03/05 02:46:03;;;;;;;4.90;4.50;;;;;;;18.64;44.31;101395.31;5064746;28;20040;-38
2022/03/05 02:48:29;;;;;;;5.22;4.82;;;;;;;18.61;44.66;101396.63;5075933;28;20487;-38
2022/03/05 02:50:55;;;;;;;4.95;4.55;;;;;;;18.51;44.29;101377.25;5076482;28;20035;-39
2022/03/05 02:53:21;;;;;;;4.88;4.47;;;;;;;18.60;44.52;101388.69;5075995;28;20452;-38
2022/03/05 02:55:47;;;;;;;5.22;4.82;;;;;;;18.60;44.44;101397.66;5074263;28;20073;-39
2022/03/05 02:58:13;;;;;;;5.47;5.07;;;;;;;18.60;44.34;101400.38;5075367;28;20029;-39
2022/03/05 03:00:39;;;;;;;5.25;4.80;;;;;;;18.58;44.43;101397.06;5075343;28;20125;-39
2022/03/05 03:03:05;;;;;;;4.85;4.45;;;;;;;18.58;44.71;101397.06;5074990;28;20028;-38
2022/03/05 03:05:30;;;;;;;4.68;4.38;;;;;;;18.57;44.41;101393.50;5074211;28;20374;-38
2022/03/05 03:07:56;;;;;;;5.15;4.75;;;;;;;18.58;44.37;101389.72;5074660;28;20032;-38
2022/03/05 03:10:22;;;;;;;5.15;4.40;;;;;;;18.52;43.94;101387.06;5075444;28;20024;-39
2022/03/05 03:12:48;;;;;;;4.40;4.00;;;;;;;18.19;41.11;101383.59;5075650;28;20060;-39
2022/03/05 03:15:15;;;;;;;10.60;3.80;;;;;;;17.91;41.11;101394.06;5075552;28;20021;-38
2022/03/05 03:17:46;;;;;;;4.30;4.00;;;;;;;17.76;41.55;101400.59;5075270;28;20107;-39
2022/03/05 03:20:15;;;;;;;3.90;3.60;;;;;;;17.57;42.19;101401.56;5075210;28;20463;-38
2022/03/05 03:22:41;;;;;;;4.45;4.05;;;;;;;17.39;42.67;101400.38;5075348;28;20047;-39
2022/03/05 03:25:07;;;;;;;4.10;3.80;;;;;;;17.27;42.98;101402.06;5075223;28;20025;-38
2022/03/05 03:27:34;;;;;;;3.72;3.28;;;;;;;17.13;43.07;101398.59;5075188;28;20036;-39
2022/03/05 03:30:00;;;;;;;3.67;3.38;;;;;;;17.07;43.51;101401.31;5057284;28;20024;-40
2022/03/05 03:32:26;;;;;;;4.68;3.78;;;;;;;17.02;43.51;101405.50;5075213;28;20439;-38
2022/03/05 03:34:52;;;;;;;4.00;3.70;;;;;;;16.93;43.52;101400.53;5075049;28;20472;-39
2022/03/05 03:37:18;;;;;;;4.60;3.83;;;;;;;16.88;43.50;101397.63;5073680;28;20047;-42
2022/03/05 03:39:43;;;;;;;3.80;3.50;;;;;;;16.75;43.68;101393.03;5074256;28;20040;-39
2022/03/05 03:42:09;;;;;;;3.92;3.55;;;;;;;16.72;43.75;101401.59;5057302;28;20096;-38
2022/03/05 03:44:35;;;;;;;11.55;4.03;;;;;;;16.65;44.16;101401.59;5070242;28;20055;-38
2022/03/05 03:47:01;;;;;;;3.47;3.10;;;;;;;16.61;43.85;101406.59;5054598;28;20037;-38
2022/03/05 03:49:27;;;;;;;4.03;3.72;;;;;;;16.57;43.90;101396.41;5054701;28;20068;-38
2022/03/05 03:51:52;;;;;;;3.72;3.42;;;;;;;16.49;44.02;101392.00;5054263;28;20025;-38
2022/03/05 03:54:18;;;;;;;4.18;3.88;;;;;;;16.52;44.20;101399.72;5054373;28;20029;-38
2022/03/05 03:56:44;;;;;;;4.03;3.70;;;;;;;16.36;44.65;101379.31;5054471;28;20025;-39
2022/03/05 03:59:10;;;;;;;3.92;3.63;;;;;;;16.34;44.47;101381.38;5036609;28;20136;-39
2022/03/05 04:01:36;;;;;;;3.45;3.20;;;;;;;16.37;44.54;101394.53;5054313;28;20047;-39
2022/03/05 04:04:01;;;;;;;3.22;3.03;;;;;;;16.38;44.51;101398.94;5054473;28;20025;-38
2022/03/05 04:08:41;;;;;;;3.65;3.35;;;;;;;16.34;44.28;101392.22;5054747;28;20029;-38
2022/03/05 04:09:13;;;;;;;3.97;3.67;;;;;;;16.35;44.52;101393.09;5039415;28;20043;-39
2022/03/05 04:11:38;;;;;;;3.35;3.13;;;;;;;16.29;44.69;101392.03;5054228;28;20025;-39
2022/03/05 04:14:04;;;;;;;5.05;3.50;;;;;;;16.29;44.41;101391.19;5054857;28;20033;-39
2022/03/05 04:16:30;;;;;;;3.85;3.55;;;;;;;16.27;44.56;101386.00;5054392;28;20056;-39
2022/03/05 04:18:56;;;;;;;20.27;3.78;;;;;;;16.25;44.56;101393.47;5054378;28;20087;-39
2022/03/05 04:21:21;;;;;;;3.53;2.95;;;;;;;16.27;44.32;101399.56;5054321;28;20083;-39
2022/03/05 04:23:47;;;;;;;3.40;3.10;;;;;;;16.24;44.30;101394.53;5036229;28;20120;-40
2022/03/05 04:26:13;;;;;;;3.38;3.08;;;;;;;16.21;44.70;101394.94;5054225;28;20033;-39
2022/03/05 04:28:39;;;;;;;3.90;3.35;;;;;;;16.13;44.53;101389.75;5036633;28;20033;-39
2022/03/05 04:31:04;;;;;;;3.80;3.40;;;;;;;16.16;44.86;101405.59;5054257;28;20039;-39
2022/03/05 04:33:30;;;;;;;3.85;3.45;;;;;;;16.18;44.76;101411.66;5035857;28;20029;-39
2022/03/05 04:35:56;;;;;;;3.05;2.85;;;;;;;16.05;44.83;101385.38;5054279;28;20021;-39
2022/03/05 04:38:22;;;;;;;4.05;3.50;;;;;;;16.18;44.87;101406.22;5054061;28;20044;-41
2022/03/05 04:40:47;;;;;;;3.40;3.10;;;;;;;16.15;44.76;101406.63;5036411;28;20104;-39
2022/03/05 04:43:13;;;;;;;3.50;3.08;;;;;;;16.12;44.72;101402.47;5035992;28;20074;-39
2022/03/05 04:45:40;;;;;;;3.30;2.97;;;;;;;16.13;44.45;101401.41;5039873;28;20544;-39
2022/03/05 04:48:06;;;;;;;4.35;2.80;;;;;;;16.10;44.78;101403.69;5072832;28;20095;-39
2022/03/05 04:50:32;;;;;;;3.30;3.03;;;;;;;16.10;44.91;101411.81;5074298;28;20024;-39
2022/03/05 04:52:58;;;;;;;3.85;3.10;;;;;;;16.09;45.03;101415.59;5074180;28;20081;-39
2022/03/05 04:55:24;;;;;;;3.80;3.38;;;;;;;16.06;45.13;101411.41;5072744;28;20135;-39
2022/03/05 04:57:50;;;;;;;2.75;2.55;;;;;;;16.03;44.88;101411.84;5056149;28;20162;-39
2022/03/05 05:00:16;;;;;;;3.92;3.30;;;;;;;16.10;44.81;101425.38;5073745;28;20086;-39
2022/03/05 05:02:42;;;;;;;2.65;2.45;;;;;;;16.05;44.81;101415.16;5072187;28;20028;-39
2022/03/05 05:05:08;;;;;;;2.90;2.70;;;;;;;16.10;44.81;101414.53;5073865;28;20058;-41
2022/03/05 05:07:34;;;;;;;3.85;2.80;;;;;;;16.05;44.78;101418.72;5075801;28;20495;-39
2022/03/05 05:10:00;;;;;;;4.65;2.85;;;;;;;16.03;44.95;101412.66;5077916;28;20029;-40
2022/03/05 05:12:25;;;;;;;3.00;2.70;;;;;;;16.11;45.15;101427.06;5078317;28;20111;-39
2022/03/05 05:14:51;;;;;;;3.17;2.88;;;;;;;16.09;44.99;101434.56;5077607;28;20104;-40
2022/03/05 05:17:17;;;;;;;4.93;2.92;;;;;;;16.06;45.06;101427.66;5077502;28;20099;-37
2022/03/05 05:19:43;;;;;;;3.35;2.47;;;;;;;16.08;45.11;101422.88;5076338;28;20063;-37
2022/03/05 05:22:08;;;;;;;4.18;3.05;;;;;;;16.07;44.79;101429.34;5077537;28;20029;-37
2022/03/05 05:24:36;;;;;;;5.95;2.60;;;;;;;16.07;44.88;101434.75;5075982;28;20028;-38
2022/03/05 05:27:03;;;;;;;2.80;2.58;;;;;;;16.05;44.89;101437.69;5077629;28;20445;-37
2022/03/05 05:29:29;;;;;;;5.95;2.47;;;;;;;16.08;44.72;101441.00;5077308;28;20029;-37
2022/03/05 05:31:56;;;;;;;3.88;2.70;;;;;;;16.03;44.93;101434.34;5077976;28;20078;-37
2022/03/05 05:34:22;;;;;;;4.15;2.60;;;;;;;16.09;45.04;101445.41;5060389;28;20038;-38
2022/03/05 05:36:48;;;;;;;3.10;2.45;;;;;;;16.06;44.97;101449.34;5079152;28;20050;-38
2022/03/05 05:39:15;;;;;;;2.97;2.40;;;;;;;16.05;44.79;101443.09;5078162;28;20055;-40
2022/03/05 05:41:41;;;;;;;3.22;2.72;;;;;;;16.08;44.81;101444.53;5080097;28;20036;-38
2022/03/05 05:44:10;;;;;;;3.78;2.50;;;;;;;16.08;44.58;101449.97;5080098;28;20443;-39
2022/03/05 05:46:36;;;;;;;4.38;2.42;;;;;;;16.11;44.59;101449.56;5077159;28;20044;-38
2022/03/05 05:49:02;;;;;;;3.38;2.20;;;;;;;16.06;44.70;101446.63;5077778;28;20431;-38
2022/03/05 05:51:29;;;;;;;3.05;1.90;;;;;;;16.09;44.71;101453.53;5077828;28;20029;-38
2022/03/05 05:53:56;;;;;;;2.45;2.25;;;;;;;16.11;44.71;101462.28;5086921;28;20039;-38
2022/03/05 05:56:23;;;;;;;3.45;2.50;;;;;;;15.99;44.74;101435.78;5085743;28;20103;-38
2022/03/05 05:58:49;;;;;;;2.22;2.00;;;;;;;16.03;44.64;101449.78;5084701;28;20029;-38
2022/03/05 06:01:17;;;;;;;2.95;2.20;;;;;;;16.05;44.42;101455.81;5083632;28;20058;-38
2022/03/05 06:03:44;;;;;;;3.08;2.25;;;;;;;16.07;44.81;101470.00;5088595;28;20495;-38
2022/03/05 06:06:11;;;;;;;4.72;2.45;;;;;;;16.08;44.79;101454.56;5089450;28;20041;-38
2022/03/05 06:08:37;;;;;;;2.55;2.20;;;;;;;16.06;44.67;101455.63;5087570;28;20032;-44
2022/03/05 06:11:03;;;;;;;2.72;2.38;;;;;;;16.03;44.78;101450.59;5071579;28;20020;-39
2022/03/05 06:13:29;;;;;;;3.53;2.35;;;;;;;16.06;44.31;101450.19;5089860;28;20032;-38
2022/03/05 06:15:55;;;;;;;2.92;2.00;;;;;;;16.03;44.56;101447.06;5088252;28;20028;-39
2022/03/05 06:18:21;;;;;;;5.13;2.53;;;;;;;16.05;44.54;101461.22;5088281;28;20040;-38
2022/03/05 06:20:47;;;;;;;3.65;2.85;;;;;;;16.03;44.89;101466.84;5087216;28;20112;-38
2022/03/05 06:23:13;;;;;;;4.07;2.03;;;;;;;16.01;44.47;101465.38;5081068;28;20101;-38
2022/03/05 06:25:38;;;;;;;2.20;2.00;;;;;;;16.04;44.65;101470.38;5076427;28;20025;-38
2022/03/05 06:28:05;;;;;;;4.70;2.70;;;;;;;16.00;44.55;101467.25;5077462;28;20531;-39
2022/03/05 06:30:31;;;;;;;2.53;1.92;;;;;;;16.03;44.74;101477.69;5077118;28;20032;-39
2022/03/05 06:32:56;;;;;;;2.55;2.17;;;;;;;16.04;44.64;101478.53;5042671;28;20071;-38
2022/03/05 06:35:23;;;;;;;7.78;2.03;;;;;;;15.99;44.83;101479.16;5058619;28;20048;-38
2022/03/05 06:37:49;;;;;;;2.38;2.00;;;;;;;16.02;44.68;101484.13;5075291;28;20028;-38
2022/03/05 06:40:15;;;;;;;2.83;2.28;;;;;;;16.05;44.41;101491.03;5075908;28;20043;-39
2022/03/05 06:42:41;;;;;;;3.42;2.10;;;;;;;15.99;44.49;101481.84;5074987;28;20056;-38
2022/03/05 06:45:08;;;;;;;4.75;2.15;;;;;;;15.99;44.77;101487.28;5068117;28;20067;-38
2022/03/05 06:47:36;;;;;;;3.17;1.80;;;;;;;16.04;44.71;101502.91;5056411;28;20053;-38
2022/03/05 06:50:03;;;;;;;3.08;2.20;;;;;;;16.04;44.64;101500.19;5055852;28;20033;-40
2022/03/05 06:52:29;;;;;;;2.42;2.22;;;;;;;15.92;44.51;101486.41;5056017;28;20068;-39
2022/03/05 06:54:54;;;;;;;2.00;1.70;;;;;;;15.92;44.77;101493.72;5038000;28;20075;-40
2022/03/05 06:57:20;;;;;;;2.47;1.75;;;;;;;16.02;44.55;101508.53;5056201;28;20059;-38
2022/03/05 06:59:46;;;;;;;3.13;2.22;;;;;;;15.98;44.95;101520.00;5038276;28;20062;-38
2022/03/05 07:02:12;;;;;;;2.40;1.80;;;;;;;15.99;44.67;101508.09;5037469;28;20116;-38
2022/03/05 07:04:37;;;;;;;2.88;1.92;;;;;;;16.01;45.03;101516.84;5021137;28;20116;-38
2022/03/05 07:07:04;;;;;;;3.20;1.90;;;;;;;16.03;44.65;101510.22;5037443;28;20048;-38
2022/03/05 07:09:30;;;;;;;3.03;1.95;;;;;;;16.13;44.35;101522.53;5037344;28;20057;-40
2022/03/05 07:11:55;;;;;;;2.70;2.08;;;;;;;16.16;44.49;101508.59;5055796;28;20052;-38
2022/03/05 07:14:21;;;;;;;2.35;1.75;;;;;;;16.18;44.35;101522.75;5038024;28;20033;-39
2022/03/05 07:16:47;;;;;;;2.67;1.58;;;;;;;16.24;44.17;101519.22;5055674;28;20472;-39
2022/03/05 07:19:13;;;;;;;2.17;1.75;;;;;;;16.24;44.04;101520.03;5055363;28;20086;-38
2022/03/05 07:21:38;;;;;;;2.53;1.90;;;;;;;16.24;44.26;101524.66;5055343;28;20032;-38
2022/03/05 07:24:05;;;;;;;2.35;1.70;;;;;;;16.34;44.09;101524.22;5037760;28;20040;-39
2022/03/05 07:26:31;;;;;;;2.70;2.03;;;;;;;16.38;44.02;101520.94;5055368;28;20107;-38
2022/03/05 07:28:56;;;;;;;3.53;1.90;;;;;;;16.42;43.94;101530.31;5036587;28;20028;-38
2022/03/05 07:31:22;;;;;;;1.95;1.50;;;;;;;16.48;43.95;101525.09;5037480;28;20028;-38
2022/03/05 07:33:48;;;;;;;1.70;1.60;;;;;;;16.54;43.99;101538.66;5054329;28;20119;-38
2022/03/05 07:36:14;;;;;;;3.00;1.80;;;;;;;16.55;43.59;101523.25;5055018;28;20100;-39
2022/03/05 07:38:43;;;;;;;4.32;1.80;;;;;;;16.61;43.82;101533.25;5037126;28;20025;-38
2022/03/05 07:41:09;;;;;;;2.63;1.50;;;;;;;16.61;43.85;101523.22;5037388;28;20099;-38
2022/03/05 07:43:34;;;;;;;4.65;1.80;;;;;;;16.71;43.72;101544.50;5054955;28;20056;-39
2022/03/05 07:46:00;;;;;;;6.57;1.98;;;;;;;16.72;43.78;101545.38;5062923;28;20140;-38
2022/03/05 07:48:26;;;;;;;3.50;1.60;;;;;;;16.75;43.87;101553.94;5074177;28;20032;-38
2022/03/05 07:50:52;;;;;;;1.92;1.70;;;;;;;16.80;43.43;101539.72;5057090;28;20025;-38
2022/03/05 07:53:19;;;;;;;1.45;1.30;;;;;;;16.84;43.55;101546.44;5073307;28;20032;-38
2022/03/05 07:55:44;;;;;;;2.47;1.50;;;;;;;16.84;43.58;101538.28;5074511;28;20504;-39
2022/03/05 07:58:10;;;;;;;3.60;1.88;;;;;;;16.86;43.52;101548.94;5074885;28;20040;-39
2022/03/05 08:00:38;;;;;;;1.90;1.27;;;;;;;16.93;43.31;101547.06;5074495;28;20119;-39
2022/03/05 08:03:04;;;;;;;4.47;1.65;;;;;;;16.96;43.23;101546.66;5074598;28;20039;-38
2022/03/05 08:05:30;;;;;;;3.90;1.40;;;;;;;16.96;43.20;101552.09;5074564;28;20029;-38
2022/03/05 08:07:56;;;;;;;2.05;1.30;;;;;;;16.88;43.34;101553.09;5073325;28;20119;-38
2022/03/05 08:10:22;;;;;;;3.03;1.50;;;;;;;16.94;43.36;101551.47;5074945;28;20044;-38
2022/03/05 08:12:48;;;;;;;1.60;1.25;;;;;;;16.94;43.14;101555.00;5073660;28;20028;-38
2022/03/05 08:15:14;;;;;;;3.17;1.45;;;;;;;17.03;43.28;101561.88;5074665;28;20029;-40
2022/03/05 08:17:57;;;;;;;4.43;1.30;;;;;;;17.07;43.09;101556.88;5074535;28;20051;-38
2022/03/05 08:20:26;;;;;;;3.53;1.40;;;;;;;17.30;42.86;101559.13;5074411;28;20029;-38
2022/03/05 08:22:52;;;;;;;10.15;2.05;;;;;;;17.36;42.87;101568.31;5073942;28;20035;-39
2022/03/05 08:25:19;;;;;;;9.68;1.70;;;;;;;17.48;42.96;101555.75;5074740;28;20071;-37
2022/03/05 08:27:44;;;;;;;11.57;2.20;;;;;;;17.77;43.13;101567.16;5073221;28;20032;-39
2022/03/05 08:30:11;;;;;;;8.60;1.50;;;;;;;17.87;42.89;101561.31;5076710;28;20028;-38
2022/03/05 08:32:37;;;;;;;7.25;1.70;;;;;;;17.84;42.50;101538.06;5079051;28;20082;-36
2022/03/05 08:35:04;;;;;;;12.50;1.60;;;;;;;18.13;42.26;101563.91;5078810;28;20472;-36
2022/03/05 08:37:30;;;;;;;12.25;1.60;;;;;;;18.25;41.85;101569.47;5079507;28;20036;-36
2022/03/05 08:39:56;;;;;;;12.82;1.55;;;;;;;18.33;42.28;101580.13;5076942;28;20055;-36
2022/03/05 08:42:22;;;;;;;3.67;1.35;;;;;;;18.43;41.62;101570.66;5060075;28;20024;-36
2022/03/05 08:44:48;;;;;;;6.95;1.77;;;;;;;18.45;41.38;101553.06;5078752;28;20052;-36
2022/03/05 08:47:13;;;;;;;8.55;1.27;;;;;;;18.60;41.51;101562.78;5059050;28;20033;-36
2022/03/05 08:49:39;;;;;;;8.98;1.40;;;;;;;18.67;41.11;101571.75;5058638;28;20068;-36
2022/03/05 08:52:05;;;;;;;6.28;1.50;;;;;;;18.68;41.14;101552.47;5058574;28;20048;-36
2022/03/05 08:54:31;;;;;;;8.75;1.58;;;;;;;18.79;41.10;101567.25;5056621;28;20029;-36
2022/03/05 08:56:57;;;;;;;2.35;1.42;;;;;;;18.87;41.00;101569.75;5022485;28;20411;-36
2022/03/05 08:59:23;;;;;;;6.10;1.30;;;;;;;18.92;40.56;101561.72;5056644;28;20033;-36
2022/03/05 09:01:49;;;;;;;2.50;1.27;;;;;;;18.97;40.65;101573.84;5056743;28;20100;-37
2022/03/05 09:04:14;;;;;;;21.73;1.42;;;;;;;19.00;40.65;101571.53;5055920;28;20100;-35
2022/03/05 09:06:41;;;;;;;6.47;1.50;;;;;;;19.05;40.76;101576.28;5057605;28;20476;-36
2022/03/05 09:09:07;;;;;;;2.42;1.15;;;;;;;19.10;40.35;101568.28;5038950;28;20139;-35
2022/03/05 09:11:37;;;;;;;7.53;1.63;;;;;;;19.07;40.37;101561.38;5022046;28;20039;-36
2022/03/05 09:14:04;;;;;;;5.57;1.45;;;;;;;19.25;40.31;101573.38;5056504;28;20055;-36
2022/03/05 09:16:30;;;;;;;10.57;1.67;;;;;;;19.29;40.34;101569.97;5055298;28;20091;-36
2022/03/05 09:18:55;;;;;;;3.75;1.23;;;;;;;19.33;39.70;101575.81;5057895;28;20403;-36
2022/03/05 09:21:21;;;;;;;5.53;1.20;;;;;;;19.33;39.75;101568.50;5039524;28;20047;-36
2022/03/05 09:23:48;;;;;;;9.30;1.52;;;;;;;19.40;39.81;101589.38;5054468;28;20082;-37
2022/03/05 09:26:15;;;;;;;1.92;1.23;;;;;;;19.45;39.70;101586.81;5036080;28;20059;-36
2022/03/05 09:28:41;;;;;;;7.30;1.67;;;;;;;19.44;39.79;101583.25;5035984;28;20488;-36
2022/03/05 09:31:07;;;;;;;3.70;1.08;;;;;;;19.50;39.64;101589.69;5053789;28;20108;-36
2022/03/05 09:33:32;;;;;;;7.18;1.00;;;;;;;19.54;39.76;101590.91;5035650;28;20128;-37
2022/03/05 09:35:58;;;;;;;5.10;1.02;;;;;;;19.58;39.66;101591.28;5036145;28;20021;-38
2022/03/05 09:38:24;;;;;;;3.97;1.20;;;;;;;19.62;39.56;101598.78;5054007;28;20025;-38
2022/03/05 09:40:50;;;;;;;4.25;1.27;;;;;;;19.60;39.69;101587.28;5053347;28;20035;-37
2022/03/05 09:43:20;;;;;;;4.63;1.40;;;;;;;19.66;39.09;101590.97;5053300;28;20114;-38
2022/03/05 09:45:46;;;;;;;4.20;1.20;;;;;;;19.68;39.36;101586.97;5052892;28;20369;-36
2022/03/05 09:48:14;;;;;;;8.38;1.13;;;;;;;19.66;39.41;101582.81;5052770;28;20583;-37
2022/03/05 09:50:40;;;;;;;4.50;1.30;;;;;;;19.74;39.18;101596.16;5035400;28;20033;-37
2022/03/05 09:53:06;;;;;;;8.63;1.30;;;;;;;19.79;39.32;101599.03;5037102;28;20025;-38
2022/03/05 09:55:32;;;;;;;14.18;1.67;;;;;;;19.83;39.18;101608.41;5057048;28;20028;-37
2022/03/05 09:57:59;;;;;;;28.25;2.05;;;;;;;19.45;38.52;101604.00;5039492;28;20452;-35
2022/03/05 10:00:25;;;;;;;13.57;1.50;;;;;;;18.94;39.33;101594.16;5058719;28;20043;-36
2022/03/05 10:02:51;;;;;;;15.82;2.17;;;;;;;18.62;39.68;101594.16;5056811;28;20115;-36
2022/03/05 10:05:26;;;;;;;12.63;1.75;;;;;;;18.43;40.22;101595.13;5057414;28;20079;-36
2022/03/05 10:08:15;;;;;;;12.35;2.03;;;;;;;18.42;40.30;101605.16;5023641;28;20063;-37
2022/03/05 10:10:48;;;;;;;17.98;2.00;;;;;;;18.30;40.44;101601.47;5042633;28;20530;-37
2022/03/05 10:13:32;;;;;;;9.82;1.40;;;;;;;18.18;40.82;101615.75;5039841;28;20039;-37
2022/03/05 10:16:00;;;;;;;8.17;2.30;;;;;;;18.36;40.70;101612.31;5022271;28;20033;-38
2022/03/05 10:18:36;;;;;;;6.93;1.60;;;;;;;18.69;40.26;101610.47;5039825;28;20033;-36
2022/03/05 10:21:06;;;;;;;6.10;1.45;;;;;;;18.85;39.88;101607.25;5058364;28;20120;-36
2022/03/05 10:23:36;;;;;;;5.00;1.30;;;;;;;19.01;40.05;101611.28;5058420;28;20036;-37
2022/03/05 10:26:04;;;;;;;4.88;1.17;;;;;;;19.01;39.98;101608.56;5052966;28;20058;-36
2022/03/05 10:28:30;;;;;;;6.75;1.70;;;;;;;19.06;39.61;101610.63;5064549;28;20040;-36
2022/03/05 10:31:02;;;;;;;7.80;1.40;;;;;;;19.00;39.87;101596.03;5045585;28;20060;-36
2022/03/05 10:33:35;;;;;;;9.80;1.67;;;;;;;19.09;39.81;101605.59;5064388;28;20037;-37
2022/03/05 10:36:07;;;;;;;10.13;1.45;;;;;;;19.06;39.81;101611.47;5040599;28;20465;-36
2022/03/05 10:38:55;;;;;;;11.95;1.35;;;;;;;19.07;39.85;101610.38;5040592;28;20035;-36
2022/03/05 10:41:33;;;;;;;9.45;1.40;;;;;;;19.08;40.29;101620.25;5042458;28;20083;-38
2022/03/05 10:44:10;;;;;;;8.80;1.65;;;;;;;19.02;39.93;101610.25;5057304;28;20060;-37
2022/03/05 10:46:53;;;;;;;11.90;1.40;;;;;;;19.06;40.09;101622.34;5056140;28;20102;-37
2022/03/05 10:49:21;;;;;;;8.00;1.30;;;;;;;19.01;40.35;101611.28;5056376;28;20374;-38
2022/03/05 10:52:04;;;;;;;3.45;1.48;;;;;;;19.00;39.96;101620.53;5039236;28;20534;-37
2022/03/05 10:54:37;;;;;;;4.05;1.50;;;;;;;18.96;39.93;101624.72;5056344;28;20043;-37
2022/03/05 10:57:17;;;;;;;5.00;1.20;;;;;;;18.89;40.23;101619.34;5039292;28;20051;-36
2022/03/05 10:59:45;;;;;;;3.42;1.38;;;;;;;18.92;40.27;101627.06;5056293;28;20071;-36
2022/03/05 11:02:11;;;;;;;1.83;1.20;;;;;;;18.83;40.10;101612.03;5055453;28;20432;-37
2022/03/05 11:04:39;;;;;;;4.45;1.50;;;;;;;18.90;40.38;101618.28;5055931;28;20032;-37
2022/03/05 11:07:07;;;;;;;2.40;1.10;;;;;;;18.87;40.57;101623.31;5056074;28;20021;-36
2022/03/05 11:09:36;;;;;;;3.83;1.50;;;;;;;18.86;40.65;101618.94;5021563;28;20040;-36
2022/03/05 11:12:03;;;;;;;7.95;1.08;;;;;;;18.85;40.59;101618.13;5055374;28;20052;-37
2022/03/05 11:14:29;;;;;;;3.13;1.20;;;;;;;18.87;40.53;101613.28;5055902;28;20025;-36
2022/03/05 11:16:56;;;;;;;3.95;1.25;;;;;;;18.75;40.59;101604.13;5055538;28;20100;-36
2022/03/05 11:19:23;;;;;;;6.88;1.70;;;;;;;18.90;40.44;101622.91;5038518;28;20067;-36
2022/03/05 11:21:49;;;;;;;7.47;1.38;;;;;;;18.88;40.33;101625.84;5055899;28;20037;-36